createdAt,value
2023-05-08T00:00:40.313Z,11.54
2023-05-08T00:01:40.442Z,11.54
2023-05-08T00:02:40.717Z,11.52
2023-05-08T00:03:40.953Z,11.50
2023-05-08T00:04:41.053Z,11.50
2023-05-08T00:05:41.162Z,11.48
2023-05-08T00:06:41.335Z,11.50
2023-05-08T00:07:41.507Z,11.48
2023-05-08T00:08:41.672Z,11.45
2023-05-08T00:09:41.866Z,11.47
2023-05-08T00:10:42.025Z,11.45
2023-05-08T00:11:42.197Z,11.45
2023-05-08T00:12:42.400Z,11.45
2023-05-08T00:13:42.556Z,11.44
2023-05-08T00:14:42.758Z,11.43
2023-05-08T00:15:42.909Z,11.40
2023-05-08T00:16:43.128Z,11.40
2023-05-08T00:17:43.286Z,11.41
2023-05-08T00:18:43.442Z,11.40
2023-05-08T00:19:43.615Z,11.40
2023-05-08T00:20:43.827Z,11.37
2023-05-08T00:21:43.966Z,11.33
2023-05-08T00:22:44.132Z,11.30
2023-05-08T00:23:44.328Z,11.30
2023-05-08T00:24:44.486Z,11.30
2023-05-08T00:25:44.653Z,11.30
2023-05-08T00:26:44.818Z,11.30
2023-05-08T00:27:45.007Z,11.29
2023-05-08T00:28:45.190Z,11.29
2023-05-08T00:29:45.371Z,11.27
2023-05-08T00:30:45.551Z,11.26
2023-05-08T00:31:45.764Z,11.25
2023-05-08T00:32:45.955Z,11.23
2023-05-08T00:33:46.167Z,11.23
2023-05-08T00:34:46.301Z,11.23
2023-05-08T00:35:46.471Z,11.19
2023-05-08T00:36:46.645Z,11.22
2023-05-08T00:37:46.839Z,11.18
2023-05-08T00:38:47.004Z,11.18
2023-05-08T00:39:47.196Z,11.17
2023-05-08T00:40:47.352Z,11.15
2023-05-08T00:41:47.524Z,11.14
2023-05-08T00:42:47.694Z,11.15
2023-05-08T00:43:47.861Z,11.11
2023-05-08T00:44:48.058Z,11.12
2023-05-08T00:45:48.264Z,11.11
2023-05-08T00:46:48.538Z,11.08
2023-05-08T00:47:48.589Z,11.08
2023-05-08T00:48:48.744Z,11.08
2023-05-08T00:49:48.924Z,11.10
2023-05-08T00:50:49.090Z,11.07
2023-05-08T00:51:49.278Z,11.08
2023-05-08T00:52:49.441Z,11.07
2023-05-08T00:53:49.595Z,11.05
2023-05-08T00:54:49.775Z,11.02
2023-05-08T00:55:49.955Z,11.00
2023-05-08T00:56:50.127Z,11.02
2023-05-08T00:57:50.283Z,10.96
2023-05-08T00:58:50.452Z,10.94
2023-05-08T00:59:50.632Z,10.94
2023-05-08T01:00:50.812Z,10.96
2023-05-08T01:01:50.993Z,10.96
2023-05-08T01:02:51.171Z,10.96
2023-05-08T01:03:51.427Z,10.94
2023-05-08T01:04:51.516Z,10.96
2023-05-08T01:05:51.702Z,10.97
2023-05-08T01:06:51.866Z,10.96
2023-05-08T01:07:52.048Z,10.96
2023-05-08T01:08:52.205Z,10.99
2023-05-08T01:09:52.392Z,10.97
2023-05-08T01:10:52.588Z,10.97
2023-05-08T01:11:52.750Z,10.96
2023-05-08T01:12:52.963Z,10.93
2023-05-08T01:13:53.105Z,10.92
2023-05-08T01:14:53.284Z,10.92
2023-05-08T01:15:53.507Z,10.92
2023-05-08T01:16:53.635Z,10.89
2023-05-08T01:17:53.870Z,10.89
2023-05-08T01:18:54.000Z,10.87
2023-05-08T01:19:54.247Z,10.87
2023-05-08T01:20:54.362Z,10.86
2023-05-08T01:21:54.588Z,10.87
2023-05-08T01:22:54.712Z,10.87
2023-05-08T01:23:54.921Z,10.89
2023-05-08T01:24:55.067Z,10.82
2023-05-08T01:25:55.245Z,10.82
2023-05-08T01:26:55.411Z,10.82
2023-05-08T01:27:55.581Z,10.81
2023-05-08T01:28:55.771Z,10.82
2023-05-08T01:29:55.955Z,10.79
2023-05-08T01:30:56.084Z,10.81
2023-05-08T01:31:56.250Z,10.78
2023-05-08T01:32:56.502Z,10.79
2023-05-08T01:33:56.613Z,10.78
2023-05-08T01:34:56.777Z,10.76
2023-05-08T01:35:56.953Z,10.76
2023-05-08T01:36:57.128Z,10.75
2023-05-08T01:37:57.307Z,10.74
2023-05-08T01:38:57.472Z,10.72
2023-05-08T01:39:57.659Z,10.74
2023-05-08T01:40:57.789Z,10.72
2023-05-08T01:41:57.958Z,10.71
2023-05-08T01:42:58.120Z,10.71
2023-05-08T01:43:58.281Z,10.71
2023-05-08T01:44:58.464Z,10.67
2023-05-08T01:45:58.631Z,10.68
2023-05-08T01:46:58.869Z,10.67
2023-05-08T01:47:58.988Z,10.64
2023-05-08T01:48:59.148Z,10.63
2023-05-08T01:49:59.338Z,10.61
2023-05-08T01:50:59.510Z,10.61
2023-05-08T01:51:59.663Z,10.60
2023-05-08T01:52:59.842Z,10.61
2023-05-08T01:54:00.161Z,10.57
2023-05-08T01:55:00.212Z,10.56
2023-05-08T01:56:00.362Z,10.56
2023-05-08T01:57:00.535Z,10.53
2023-05-08T01:58:00.703Z,10.54
2023-05-08T01:59:00.871Z,10.51
2023-05-08T02:00:01.053Z,10.51
2023-05-08T02:01:01.233Z,10.49
2023-05-08T02:02:01.431Z,10.48
2023-05-08T02:03:01.602Z,10.51
2023-05-08T02:04:01.790Z,10.49
2023-05-08T02:05:01.911Z,10.48
2023-05-08T02:06:02.080Z,10.46
2023-05-08T02:07:02.261Z,10.46
2023-05-08T02:08:02.432Z,10.44
2023-05-08T02:09:02.632Z,10.44
2023-05-08T02:10:02.813Z,10.46
2023-05-08T02:11:03.006Z,10.42
2023-05-08T02:12:03.165Z,10.42
2023-05-08T02:13:03.380Z,10.44
2023-05-08T02:14:03.542Z,10.40
2023-05-08T02:15:03.683Z,10.40
2023-05-08T02:16:03.876Z,10.37
2023-05-08T02:17:04.152Z,10.38
2023-05-08T02:18:04.231Z,10.37
2023-05-08T02:19:04.383Z,10.37
2023-05-08T02:20:04.567Z,10.37
2023-05-08T02:21:04.734Z,10.34
2023-05-08T02:22:04.906Z,10.34
2023-05-08T02:23:05.078Z,10.33
2023-05-08T02:24:05.245Z,10.34
2023-05-08T02:25:05.423Z,10.31
2023-05-08T02:26:05.604Z,10.31
2023-05-08T02:27:05.759Z,10.30
2023-05-08T02:28:05.950Z,10.33
2023-05-08T02:29:06.163Z,10.31
2023-05-08T02:30:06.321Z,10.26
2023-05-08T02:31:06.491Z,10.26
2023-05-08T02:32:06.724Z,10.26
2023-05-08T02:33:06.940Z,10.26
2023-05-08T02:34:07.051Z,10.25
2023-05-08T02:35:07.219Z,10.25
2023-05-08T02:36:07.403Z,10.22
2023-05-08T02:37:07.578Z,10.23
2023-05-08T02:38:07.732Z,10.22
2023-05-08T02:39:07.919Z,10.23
2023-05-08T02:40:08.059Z,10.23
2023-05-08T02:41:08.224Z,10.22
2023-05-08T02:42:08.408Z,10.20
2023-05-08T02:43:08.592Z,10.19
2023-05-08T02:44:08.793Z,10.19
2023-05-08T02:45:08.950Z,10.15
2023-05-08T02:46:09.154Z,10.12
2023-05-08T02:47:09.281Z,10.12
2023-05-08T02:48:09.460Z,10.12
2023-05-08T02:49:09.598Z,10.13
2023-05-08T02:50:09.928Z,10.10
2023-05-08T02:51:09.911Z,10.12
2023-05-08T02:52:10.169Z,10.13
2023-05-08T02:53:10.267Z,10.07
2023-05-08T02:54:10.431Z,10.12
2023-05-08T02:55:10.618Z,10.09
2023-05-08T02:56:10.773Z,10.10
2023-05-08T02:57:10.959Z,10.10
2023-05-08T02:58:11.130Z,10.05
2023-05-08T02:59:11.305Z,10.05
2023-05-08T03:00:11.767Z,10.04
2023-05-08T03:01:11.678Z,10.02
2023-05-08T03:02:11.843Z,10.01
2023-05-08T03:03:12.085Z,9.98
2023-05-08T03:04:12.165Z,9.99
2023-05-08T03:05:12.325Z,10.01
2023-05-08T03:06:12.513Z,10.04
2023-05-08T03:07:12.708Z,10.02
2023-05-08T03:08:12.862Z,10.01
2023-05-08T03:09:13.015Z,10.01
2023-05-08T03:10:13.451Z,9.99
2023-05-08T03:11:13.384Z,9.98
2023-05-08T03:12:13.536Z,10.01
2023-05-08T03:13:13.751Z,10.01
2023-05-08T03:14:13.912Z,10.02
2023-05-08T03:15:14.063Z,10.01
2023-05-08T03:16:14.328Z,9.99
2023-05-08T03:17:14.447Z,9.99
2023-05-08T03:18:14.594Z,9.97
2023-05-08T03:19:14.760Z,9.98
2023-05-08T03:20:15.216Z,9.97
2023-05-08T03:21:15.111Z,9.98
2023-05-08T03:22:15.288Z,9.98
2023-05-08T03:23:15.432Z,9.95
2023-05-08T03:24:15.637Z,9.97
2023-05-08T03:25:15.828Z,9.97
2023-05-08T03:26:16.024Z,9.95
2023-05-08T03:27:16.138Z,9.95
2023-05-08T03:28:16.312Z,9.95
2023-05-08T03:29:16.506Z,9.95
2023-05-08T03:30:16.716Z,9.97
2023-05-08T03:31:16.912Z,9.97
2023-05-08T03:32:17.040Z,9.98
2023-05-08T03:33:17.235Z,9.95
2023-05-08T03:34:17.416Z,9.98
2023-05-08T03:35:17.611Z,9.95
2023-05-08T03:36:17.729Z,9.97
2023-05-08T03:37:17.904Z,9.97
2023-05-08T03:38:18.084Z,9.97
2023-05-08T03:39:18.262Z,9.97
2023-05-08T03:40:18.440Z,9.95
2023-05-08T03:41:18.633Z,9.95
2023-05-08T03:42:18.809Z,9.97
2023-05-08T03:43:18.992Z,9.98
2023-05-08T03:44:19.219Z,9.99
2023-05-08T03:45:19.359Z,10.02
2023-05-08T03:46:19.589Z,10.04
2023-05-08T03:47:19.733Z,10.10
2023-05-08T03:48:19.923Z,10.15
2023-05-08T03:49:20.081Z,10.15
2023-05-08T03:50:20.300Z,10.19
2023-05-08T03:51:20.418Z,10.22
2023-05-08T03:52:20.597Z,10.31
2023-05-08T03:53:20.793Z,10.38
2023-05-08T03:54:20.973Z,10.42
2023-05-08T03:55:21.157Z,10.49
2023-05-08T03:56:21.336Z,10.49
2023-05-08T03:57:21.516Z,10.53
2023-05-08T03:58:21.720Z,10.54
2023-05-08T03:59:21.885Z,10.57
2023-05-08T04:00:22.046Z,10.57
2023-05-08T04:01:22.215Z,10.54
2023-05-08T04:02:22.556Z,10.59
2023-05-08T04:03:22.674Z,10.59
2023-05-08T04:04:22.735Z,10.60
2023-05-08T04:05:22.912Z,10.67
2023-05-08T04:06:23.114Z,10.64
2023-05-08T04:07:23.300Z,10.64
2023-05-08T04:08:23.474Z,10.64
2023-05-08T04:09:23.672Z,10.68
2023-05-08T04:10:23.815Z,10.71
2023-05-08T04:11:23.992Z,10.68
2023-05-08T04:12:24.192Z,10.72
2023-05-08T04:13:24.398Z,10.74
2023-05-08T04:14:24.542Z,10.79
2023-05-08T04:15:24.697Z,10.86
2023-05-08T04:16:24.950Z,10.94
2023-05-08T04:17:25.089Z,11.00
2023-05-08T04:18:25.252Z,11.05
2023-05-08T04:19:25.392Z,11.08
2023-05-08T04:20:25.565Z,11.11
2023-05-08T04:21:25.762Z,11.10
2023-05-08T04:22:25.932Z,11.11
2023-05-08T04:23:26.099Z,11.11
2023-05-08T04:24:26.263Z,11.10
2023-05-08T04:25:26.447Z,11.08
2023-05-08T04:26:26.595Z,11.08
2023-05-08T04:27:26.755Z,11.11
2023-05-08T04:28:26.950Z,11.14
2023-05-08T04:29:27.119Z,11.17
2023-05-08T04:30:27.342Z,11.19
2023-05-08T04:31:27.501Z,11.25
2023-05-08T04:32:27.664Z,11.26
2023-05-08T04:33:27.851Z,11.27
2023-05-08T04:34:27.977Z,11.26
2023-05-08T04:35:28.174Z,11.26
2023-05-08T04:36:28.318Z,11.29
2023-05-08T04:37:28.493Z,11.27
2023-05-08T04:38:28.705Z,11.26
2023-05-08T04:39:28.868Z,11.27
2023-05-08T04:40:29.078Z,11.29
2023-05-08T04:41:29.284Z,11.33
2023-05-08T04:42:29.408Z,11.40
2023-05-08T04:43:29.585Z,11.45
2023-05-08T04:44:29.803Z,11.47
2023-05-08T04:45:29.994Z,11.48
2023-05-08T04:46:30.175Z,11.48
2023-05-08T04:47:30.347Z,11.47
2023-05-08T04:48:30.447Z,11.45
2023-05-08T04:49:30.671Z,11.48
2023-05-08T04:50:30.764Z,11.48
2023-05-08T04:51:30.921Z,11.54
2023-05-08T04:52:31.098Z,11.60
2023-05-08T04:53:31.292Z,11.68
2023-05-08T04:54:31.487Z,11.81
2023-05-08T04:55:31.659Z,11.87
2023-05-08T04:56:31.804Z,11.94
2023-05-08T04:57:31.983Z,11.97
2023-05-08T04:58:32.176Z,12.00
2023-05-08T04:59:32.336Z,12.00
2023-05-08T05:00:32.496Z,11.99
2023-05-08T05:01:32.718Z,11.99
2023-05-08T05:02:32.939Z,12.04
2023-05-08T05:03:33.024Z,12.03
2023-05-08T05:04:33.165Z,12.03
2023-05-08T05:05:33.332Z,12.06
2023-05-08T05:06:33.504Z,12.07
2023-05-08T05:07:33.656Z,12.10
2023-05-08T05:08:33.856Z,12.12
2023-05-08T05:09:34.011Z,12.17
2023-05-08T05:10:34.198Z,12.22
2023-05-08T05:11:34.382Z,12.28
2023-05-08T05:12:34.570Z,12.46
2023-05-08T05:13:34.767Z,12.58
2023-05-08T05:14:34.909Z,12.70
2023-05-08T05:15:35.094Z,12.83
2023-05-08T05:16:35.394Z,13.08
2023-05-08T05:17:35.525Z,13.30
2023-05-08T05:18:35.666Z,13.50
2023-05-08T05:19:35.815Z,13.67
2023-05-08T05:20:36.007Z,13.79
2023-05-08T05:21:36.182Z,13.97
2023-05-08T05:22:36.356Z,14.29
2023-05-08T05:23:36.578Z,14.70
2023-05-08T05:24:36.704Z,15.14
2023-05-08T05:25:36.877Z,15.58
2023-05-08T05:26:37.071Z,15.94
2023-05-08T05:27:37.237Z,16.26
2023-05-08T05:28:37.388Z,16.57
2023-05-08T05:29:37.567Z,16.91
2023-05-08T05:30:37.721Z,17.19
2023-05-08T05:31:37.964Z,17.46
2023-05-08T05:32:38.114Z,17.64
2023-05-08T05:33:38.283Z,17.86
2023-05-08T05:34:38.429Z,18.13
2023-05-08T05:35:38.598Z,18.38
2023-05-08T05:36:38.755Z,18.62
2023-05-08T05:37:38.931Z,18.84
2023-05-08T05:38:39.114Z,19.11
2023-05-08T05:39:39.303Z,19.29
2023-05-08T05:40:39.476Z,19.56
2023-05-08T05:41:39.624Z,19.81
2023-05-08T05:42:39.801Z,20.00
2023-05-08T05:43:39.990Z,20.25
2023-05-08T05:44:40.177Z,20.50
2023-05-08T05:45:40.374Z,20.63
2023-05-08T05:46:42.788Z,20.80
2023-05-08T05:47:40.753Z,20.90
2023-05-08T05:48:40.863Z,21.09
2023-05-08T05:49:41.106Z,21.30
2023-05-08T05:50:41.251Z,21.46
2023-05-08T05:51:41.407Z,21.64
2023-05-08T05:52:41.587Z,21.75
2023-05-08T05:53:41.748Z,21.93
2023-05-08T05:54:41.946Z,21.92
2023-05-08T05:55:42.107Z,22.02
2023-05-08T05:56:42.268Z,22.10
2023-05-08T05:57:42.443Z,22.18
2023-05-08T05:58:42.643Z,22.08
2023-05-08T05:59:42.843Z,21.92
2023-05-08T06:00:42.955Z,21.85
2023-05-08T06:01:43.198Z,21.88
2023-05-08T06:02:43.410Z,22.00
2023-05-08T06:03:43.601Z,22.00
2023-05-08T06:04:43.829Z,21.89
2023-05-08T06:05:43.860Z,21.98
2023-05-08T06:06:44.014Z,21.98
2023-05-08T06:07:44.209Z,22.17
2023-05-08T06:08:44.385Z,22.39
2023-05-08T06:09:44.559Z,22.65
2023-05-08T06:10:44.725Z,22.75
2023-05-08T06:11:44.891Z,22.96
2023-05-08T06:12:45.088Z,23.13
2023-05-08T06:13:45.245Z,23.25
2023-05-08T06:14:45.401Z,23.37
2023-05-08T06:15:45.595Z,23.28
2023-05-08T06:16:45.771Z,23.32
2023-05-08T06:17:45.992Z,23.51
2023-05-08T06:18:46.114Z,23.68
2023-05-08T06:19:46.284Z,23.78
2023-05-08T06:20:46.510Z,23.98
2023-05-08T06:21:46.631Z,24.13
2023-05-08T06:22:46.879Z,24.18
2023-05-08T06:23:47.018Z,24.42
2023-05-08T06:24:47.172Z,24.58
2023-05-08T06:25:47.360Z,24.68
2023-05-08T06:26:47.503Z,24.78
2023-05-08T06:27:47.724Z,24.80
2023-05-08T06:28:47.828Z,24.77
2023-05-08T06:29:48.016Z,24.86
2023-05-08T06:30:48.219Z,24.99
2023-05-08T06:31:48.380Z,25.03
2023-05-08T06:32:48.612Z,25.13
2023-05-08T06:33:48.723Z,25.16
2023-05-08T06:34:48.902Z,25.25
2023-05-08T06:35:49.097Z,25.40
2023-05-08T06:36:49.319Z,25.48
2023-05-08T06:37:49.448Z,25.58
2023-05-08T06:38:49.591Z,25.68
2023-05-08T06:39:57.265Z,25.70
2023-05-08T06:40:50.950Z,25.70
2023-05-08T06:41:50.117Z,25.81
2023-05-08T06:42:50.265Z,26.02
2023-05-08T06:43:50.457Z,26.15
2023-05-08T06:44:50.617Z,26.10
2023-05-08T06:45:50.847Z,26.06
2023-05-08T06:46:51.037Z,26.19
2023-05-08T06:47:51.150Z,26.43
2023-05-08T06:48:51.297Z,26.70
2023-05-08T06:49:51.465Z,26.95
2023-05-08T06:50:51.636Z,27.14
2023-05-08T06:51:51.805Z,27.27
2023-05-08T06:52:51.976Z,27.27
2023-05-08T06:53:52.189Z,27.27
2023-05-08T06:54:52.384Z,27.17
2023-05-08T06:55:52.497Z,27.18
2023-05-08T06:56:52.803Z,27.07
2023-05-08T06:57:52.830Z,27.07
2023-05-08T06:59:04.492Z,27.10
2023-05-08T06:59:54.234Z,26.93
2023-05-08T07:00:53.357Z,26.88
2023-05-08T07:01:53.539Z,26.75
2023-05-08T07:02:53.769Z,26.73
2023-05-08T07:03:53.879Z,26.89
2023-05-08T07:04:54.122Z,26.95
2023-05-08T07:05:54.279Z,26.65
2023-05-08T07:06:54.413Z,26.60
2023-05-08T07:07:54.587Z,26.51
2023-05-08T07:08:54.781Z,26.48
2023-05-08T07:09:54.944Z,26.48
2023-05-08T07:10:55.098Z,26.43
2023-05-08T07:11:55.306Z,26.47
2023-05-08T07:12:55.470Z,26.48
2023-05-08T07:13:55.662Z,26.45
2023-05-08T07:14:57.260Z,26.44
2023-05-08T07:15:56.059Z,26.40
2023-05-08T07:16:56.282Z,26.40
2023-05-08T07:17:56.351Z,26.43
2023-05-08T07:18:56.525Z,26.40
2023-05-08T07:19:56.683Z,26.26
2023-05-08T07:20:56.846Z,26.13
2023-05-08T07:21:57.070Z,26.00
2023-05-08T07:22:57.274Z,25.93
2023-05-08T07:23:57.396Z,26.00
2023-05-08T07:24:57.556Z,26.06
2023-05-08T07:25:57.766Z,26.18
2023-05-08T07:26:57.917Z,26.21
2023-05-08T07:28:00.483Z,26.23
2023-05-08T07:28:58.246Z,26.21
2023-05-08T07:29:58.417Z,26.05
2023-05-08T07:30:58.589Z,26.10
2023-05-08T07:31:58.845Z,26.23
2023-05-08T07:32:59.053Z,26.48
2023-05-08T07:33:59.143Z,26.58
2023-05-08T07:34:59.323Z,26.70
2023-05-08T07:35:59.493Z,26.80
2023-05-08T07:36:59.703Z,26.75
2023-05-08T07:37:59.876Z,26.58
2023-05-08T07:39:00.014Z,26.37
2023-05-08T07:40:00.179Z,26.22
2023-05-08T07:41:00.421Z,26.06
2023-05-08T07:42:00.571Z,26.15
2023-05-08T07:43:00.726Z,26.00
2023-05-08T07:44:00.880Z,25.96
2023-05-08T07:45:01.103Z,26.09
2023-05-08T07:46:01.273Z,26.23
2023-05-08T07:47:01.463Z,26.36
2023-05-08T07:48:01.637Z,26.53
2023-05-08T07:49:01.743Z,26.74
2023-05-08T07:50:01.903Z,26.96
2023-05-08T07:51:02.094Z,27.14
2023-05-08T07:52:02.252Z,27.25
2023-05-08T07:53:02.421Z,27.22
2023-05-08T07:54:02.610Z,27.20
2023-05-08T07:55:02.780Z,27.21
2023-05-08T07:56:02.978Z,27.25
2023-05-08T07:57:03.123Z,27.22
2023-05-08T07:58:03.284Z,27.08
2023-05-08T07:59:03.443Z,27.11
2023-05-08T08:00:03.681Z,27.20
2023-05-08T08:01:03.839Z,27.30
2023-05-08T08:02:03.992Z,27.42
2023-05-08T08:03:04.202Z,27.48
2023-05-08T08:04:04.398Z,27.47
2023-05-08T08:05:04.530Z,27.59
2023-05-08T08:06:04.703Z,27.80
2023-05-08T08:07:04.870Z,27.89
2023-05-08T08:08:05.081Z,27.67
2023-05-08T08:09:05.233Z,27.35
2023-05-08T08:10:05.427Z,27.26
2023-05-08T08:11:05.598Z,27.33
2023-05-08T08:12:05.822Z,27.60
2023-05-08T08:13:06.027Z,27.96
2023-05-08T08:14:06.160Z,28.23
2023-05-08T08:15:06.336Z,28.30
2023-05-08T08:16:06.479Z,28.51
2023-05-08T08:17:06.730Z,28.45
2023-05-08T08:18:06.880Z,28.26
2023-05-08T08:19:07.007Z,28.12
2023-05-08T08:20:07.210Z,28.10
2023-05-08T08:21:07.314Z,28.01
2023-05-08T08:22:07.502Z,28.12
2023-05-08T08:23:07.688Z,28.15
2023-05-08T08:24:07.893Z,28.32
2023-05-08T08:25:08.033Z,28.59
2023-05-08T08:26:08.246Z,28.66
2023-05-08T08:27:08.392Z,28.84
2023-05-08T08:28:08.612Z,28.97
2023-05-08T08:29:08.789Z,28.88
2023-05-08T08:30:17.648Z,29.02
2023-05-08T08:31:10.155Z,29.04
2023-05-08T08:32:09.314Z,28.94
2023-05-08T08:33:09.535Z,28.85
2023-05-08T08:34:09.674Z,29.02
2023-05-08T08:35:09.846Z,29.13
2023-05-08T08:36:10.039Z,29.16
2023-05-08T08:37:10.195Z,29.22
2023-05-08T08:38:10.434Z,29.42
2023-05-08T08:39:12.493Z,29.56
2023-05-08T08:40:10.747Z,29.69
2023-05-08T08:41:10.891Z,29.93
2023-05-08T08:42:11.161Z,30.00
2023-05-08T08:43:11.294Z,30.00
2023-05-08T08:44:11.429Z,30.16
2023-05-08T08:45:11.843Z,30.37
2023-05-08T08:46:11.817Z,30.48
2023-05-08T08:47:11.982Z,30.57
2023-05-08T08:48:12.179Z,30.63
2023-05-08T08:49:12.305Z,30.77
2023-05-08T08:50:14.428Z,30.65
2023-05-08T08:51:12.657Z,30.53
2023-05-08T08:52:12.859Z,30.75
2023-05-08T08:53:13.052Z,30.78
2023-05-08T08:54:13.217Z,30.91
2023-05-08T08:55:13.581Z,30.84
2023-05-08T08:56:13.552Z,30.87
2023-05-08T08:57:13.751Z,30.73
2023-05-08T08:58:13.930Z,30.66
2023-05-08T08:59:14.101Z,30.55
2023-05-08T09:00:14.296Z,30.75
2023-05-08T09:01:14.445Z,30.92
2023-05-08T09:02:14.691Z,30.96
2023-05-08T09:03:14.931Z,31.06
2023-05-08T09:04:15.020Z,31.14
2023-05-08T09:05:15.381Z,31.02
2023-05-08T09:06:15.384Z,31.15
2023-05-08T09:07:15.530Z,31.15
2023-05-08T09:08:15.749Z,31.09
2023-05-08T09:09:15.909Z,31.15
2023-05-08T09:10:16.088Z,31.15
2023-05-08T09:11:16.271Z,31.33
2023-05-08T09:12:16.506Z,31.62
2023-05-08T09:13:18.851Z,31.85
2023-05-08T09:14:16.786Z,31.87
2023-05-08T09:15:17.009Z,31.94
2023-05-08T09:16:17.210Z,32.14
2023-05-08T09:17:17.334Z,32.29
2023-05-08T09:18:17.543Z,32.36
2023-05-08T09:19:17.696Z,32.31
2023-05-08T09:20:17.899Z,32.46
2023-05-08T09:21:18.081Z,32.67
2023-05-08T09:22:18.246Z,32.85
2023-05-08T09:23:18.387Z,33.24
2023-05-08T09:24:18.572Z,33.43
2023-05-08T09:25:18.744Z,33.47
2023-05-08T09:26:18.911Z,33.57
2023-05-08T09:27:19.074Z,33.76
2023-05-08T09:28:19.238Z,34.02
2023-05-08T09:29:19.412Z,34.05
2023-05-08T09:30:19.654Z,34.06
2023-05-08T09:31:19.753Z,34.18
2023-05-08T09:32:20.012Z,34.40
2023-05-08T09:33:20.099Z,34.42
2023-05-08T09:34:20.276Z,34.57
2023-05-08T09:35:20.426Z,34.57
2023-05-08T09:36:20.603Z,34.57
2023-05-08T09:37:20.830Z,34.64
2023-05-08T09:38:20.951Z,34.77
2023-05-08T09:39:21.192Z,34.89
2023-05-08T09:40:21.642Z,34.97
2023-05-08T09:41:21.482Z,35.00
2023-05-08T09:42:21.681Z,35.11
2023-05-08T09:43:21.861Z,35.08
2023-05-08T09:44:22.032Z,34.89
2023-05-08T09:45:22.213Z,34.45
2023-05-08T09:46:22.510Z,34.23
2023-05-08T09:47:22.661Z,33.95
2023-05-08T09:48:22.723Z,33.65
2023-05-08T09:49:22.895Z,33.45
2023-05-08T09:50:23.056Z,33.39
2023-05-08T09:51:23.271Z,33.49
2023-05-08T09:52:23.415Z,33.49
2023-05-08T09:53:23.629Z,33.58
2023-05-08T09:54:23.800Z,33.62
2023-05-08T09:55:23.979Z,33.73
2023-05-08T09:56:24.132Z,33.81
2023-05-08T09:57:24.346Z,34.06
2023-05-08T09:58:24.528Z,34.23
2023-05-08T09:59:24.681Z,34.11
2023-05-08T10:00:24.861Z,33.90
2023-05-08T10:01:25.064Z,33.94
2023-05-08T10:02:25.231Z,33.99
2023-05-08T10:03:25.418Z,33.71
2023-05-08T10:04:25.552Z,33.23
2023-05-08T10:05:25.774Z,32.70
2023-05-08T10:06:25.920Z,32.27
2023-05-08T10:07:26.070Z,31.59
2023-05-08T10:08:26.267Z,30.72
2023-05-08T10:09:28.900Z,30.12
2023-05-08T10:10:27.619Z,29.68
2023-05-08T10:11:26.777Z,29.23
2023-05-08T10:12:26.930Z,28.72
2023-05-08T10:13:27.170Z,28.17
2023-05-08T10:14:27.303Z,27.68
2023-05-08T10:15:27.496Z,27.25
2023-05-08T10:16:27.718Z,26.68
2023-05-08T10:17:27.872Z,26.21
2023-05-08T10:18:27.978Z,25.68
2023-05-08T10:19:28.180Z,25.18
2023-05-08T10:20:28.357Z,24.77
2023-05-08T10:21:28.511Z,24.36
2023-05-08T10:22:28.692Z,24.11
2023-05-08T10:23:28.878Z,23.91
2023-05-08T10:24:29.052Z,23.73
2023-05-08T10:25:29.260Z,23.46
2023-05-08T10:26:29.381Z,23.15
2023-05-08T10:27:29.581Z,22.87
2023-05-08T10:28:29.738Z,22.72
2023-05-08T10:29:29.947Z,22.57
2023-05-08T10:30:30.085Z,22.45
2023-05-08T10:31:30.301Z,22.30
2023-05-08T10:32:30.429Z,22.17
2023-05-08T10:33:31.170Z,22.04
2023-05-08T10:34:30.754Z,21.95
2023-05-08T10:35:30.915Z,21.88
2023-05-08T10:36:31.201Z,21.76
2023-05-08T10:37:31.272Z,21.67
2023-05-08T10:38:31.415Z,21.60
2023-05-08T10:39:31.596Z,21.46
2023-05-08T10:40:31.805Z,21.40
2023-05-08T10:41:31.973Z,21.39
2023-05-08T10:42:32.171Z,21.37
2023-05-08T10:43:32.304Z,21.33
2023-05-08T10:44:32.470Z,21.30
2023-05-08T10:45:32.646Z,21.21
2023-05-08T10:46:32.852Z,21.17
2023-05-08T10:47:32.998Z,21.12
2023-05-08T10:48:33.184Z,20.99
2023-05-08T10:49:33.380Z,20.92
2023-05-08T10:50:33.519Z,20.87
2023-05-08T10:51:33.683Z,20.77
2023-05-08T10:52:33.861Z,20.75
2023-05-08T10:53:34.066Z,20.77
2023-05-08T10:54:34.219Z,20.75
2023-05-08T10:55:34.401Z,20.77
2023-05-08T10:56:34.596Z,20.78
2023-05-08T10:57:34.769Z,20.78
2023-05-08T10:58:34.934Z,20.82
2023-05-08T10:59:35.097Z,20.87
2023-05-08T11:00:35.260Z,20.88
2023-05-08T11:01:35.475Z,20.92
2023-05-08T11:02:35.721Z,20.95
2023-05-08T11:03:35.858Z,20.97
2023-05-08T11:04:36.099Z,21.05
2023-05-08T11:05:36.157Z,21.11
2023-05-08T11:06:36.308Z,21.12
2023-05-08T11:07:36.612Z,21.18
2023-05-08T11:08:36.685Z,21.21
2023-05-08T11:09:36.842Z,21.27
2023-05-08T11:10:37.118Z,21.29
2023-05-08T11:11:37.206Z,21.25
2023-05-08T11:12:37.446Z,21.27
2023-05-08T11:13:37.526Z,21.25
2023-05-08T11:14:37.684Z,21.27
2023-05-08T11:15:37.872Z,21.29
2023-05-08T11:16:38.084Z,21.30
2023-05-08T11:17:38.240Z,21.32
2023-05-08T11:18:49.196Z,21.27
2023-05-08T11:19:39.612Z,21.25
2023-05-08T11:20:38.712Z,21.27
2023-05-08T11:21:38.917Z,21.30
2023-05-08T11:22:39.084Z,21.36
2023-05-08T11:23:39.266Z,21.39
2023-05-08T11:24:39.448Z,21.39
2023-05-08T11:25:39.605Z,21.36
2023-05-08T11:26:39.784Z,21.30
2023-05-08T11:27:39.969Z,21.27
2023-05-08T11:28:40.147Z,21.25
2023-05-08T11:29:40.301Z,21.27
2023-05-08T11:30:40.518Z,21.22
2023-05-08T11:31:40.697Z,21.27
2023-05-08T11:32:40.865Z,21.29
2023-05-08T11:33:41.027Z,21.30
2023-05-08T11:34:41.186Z,21.36
2023-05-08T11:35:41.357Z,21.39
2023-05-08T11:36:41.492Z,21.40
2023-05-08T11:37:41.676Z,21.46
2023-05-08T11:38:41.882Z,21.50
2023-05-08T11:39:42.067Z,21.46
2023-05-08T11:40:42.253Z,21.45
2023-05-08T11:41:42.433Z,21.45
2023-05-08T11:42:42.607Z,21.45
2023-05-08T11:43:42.765Z,21.43
2023-05-08T11:44:42.955Z,21.35
2023-05-08T11:45:43.102Z,21.33
2023-05-08T11:46:43.356Z,21.30
2023-05-08T11:47:43.477Z,21.39
2023-05-08T11:48:43.633Z,21.43
2023-05-08T11:49:43.813Z,21.51
2023-05-08T11:50:43.960Z,21.61
2023-05-08T11:51:44.178Z,21.62
2023-05-08T11:52:44.367Z,21.60
2023-05-08T11:53:44.502Z,21.58
2023-05-08T11:54:44.701Z,21.52
2023-05-08T11:55:44.869Z,21.48
2023-05-08T11:56:47.565Z,21.45
2023-05-08T11:57:45.258Z,21.42
2023-05-08T11:58:45.420Z,21.42
2023-05-08T11:59:45.597Z,21.45
2023-05-08T12:00:45.776Z,21.46
2023-05-08T12:01:53.619Z,21.46
2023-05-08T12:02:47.193Z,21.45
2023-05-08T12:03:46.458Z,21.37
2023-05-08T12:04:46.949Z,21.36
2023-05-08T12:05:46.680Z,21.35
2023-05-08T12:06:46.820Z,21.36
2023-05-08T12:07:47.216Z,21.36
2023-05-08T12:08:47.194Z,21.40
2023-05-08T12:09:47.353Z,21.46
2023-05-08T12:10:47.536Z,21.52
2023-05-08T12:11:47.711Z,21.51
2023-05-08T12:12:47.941Z,21.54
2023-05-08T12:13:48.064Z,21.52
2023-05-08T12:14:48.217Z,21.55
2023-05-08T12:15:48.398Z,21.58
2023-05-08T12:16:48.599Z,21.60
2023-05-08T12:17:48.812Z,21.64
2023-05-08T12:18:48.876Z,21.66
2023-05-08T12:19:49.069Z,21.72
2023-05-08T12:20:49.257Z,21.72
2023-05-08T12:21:49.461Z,21.72
2023-05-08T12:22:49.593Z,21.70
2023-05-08T12:23:49.735Z,21.67
2023-05-08T12:24:49.901Z,21.64
2023-05-08T12:25:50.094Z,21.64
2023-05-08T12:26:50.272Z,21.67
2023-05-08T12:27:50.422Z,21.62
2023-05-08T12:28:50.613Z,21.62
2023-05-08T12:29:50.842Z,21.66
2023-05-08T12:30:51.095Z,21.67
2023-05-08T12:31:51.176Z,21.69
2023-05-08T12:32:51.360Z,21.66
2023-05-08T12:33:51.506Z,21.66
2023-05-08T12:34:51.679Z,21.67
2023-05-08T12:35:52.027Z,21.69
2023-05-08T12:36:52.056Z,21.67
2023-05-08T12:37:52.261Z,21.70
2023-05-08T12:38:52.405Z,21.73
2023-05-08T12:39:52.637Z,21.77
2023-05-08T12:40:52.779Z,21.80
2023-05-08T12:41:52.953Z,21.83
2023-05-08T12:42:53.114Z,21.79
2023-05-08T12:43:53.292Z,21.79
2023-05-08T12:44:53.587Z,21.79
2023-05-08T12:45:53.672Z,21.88
2023-05-08T12:46:53.847Z,21.93
2023-05-08T12:47:54.041Z,22.02
2023-05-08T12:48:54.263Z,22.06
2023-05-08T12:49:54.374Z,22.07
2023-05-08T12:50:54.527Z,22.10
2023-05-08T12:51:54.707Z,22.10
2023-05-08T12:52:54.866Z,22.06
2023-05-08T12:53:55.057Z,21.99
2023-05-08T12:54:55.211Z,22.00
2023-05-08T12:55:55.440Z,22.00